sensor_id;sensor_type;location;lat;lon;timestamp;pressure;altitude;pressure_sealevel;temperature;humidity
60055;BME280;45930;53.514;55.904;2023-04-25T00:00:00;49131.97;;;-149.77;46.49
60055;BME280;45930;53.514;55.904;2023-04-25T00:01:01;49157.72;;;-149.77;46.62
60055;BME280;45930;53.514;55.904;2023-04-25T00:02:03;49141.88;;;-149.77;46.87
60055;BME280;45930;53.514;55.904;2023-04-25T00:03:03;49149.78;;;-149.77;47.13
60055;BME280;45930;53.514;55.904;2023-04-25T00:04:05;49151.78;;;-149.77;47.56
60055;BME280;45930;53.514;55.904;2023-04-25T00:05:07;49169.59;;;-149.77;47.86
60055;BME280;45930;53.514;55.904;2023-04-25T00:06:08;49173.56;;;-149.77;48.16
60055;BME280;45930;53.514;55.904;2023-04-25T00:07:09;49161.69;;;-149.77;48.49
60055;BME280;45930;53.514;55.904;2023-04-25T00:08:09;49159.69;;;-149.77;49.03
60055;BME280;45930;53.514;55.904;2023-04-25T00:09:10;49157.72;;;-149.77;49.27
60055;BME280;45930;53.514;55.904;2023-04-25T00:10:12;49139.91;;;-149.77;49.58
60055;BME280;45930;53.514;55.904;2023-04-25T00:11:13;49143.84;;;-149.77;49.79
60055;BME280;45930;53.514;55.904;2023-04-25T00:12:13;49153.75;;;-149.77;50.04
60055;BME280;45930;53.514;55.904;2023-04-25T00:13:16;49155.75;;;-149.77;49.86
60055;BME280;45930;53.514;55.904;2023-04-25T00:14:17;49159.69;;;-149.77;49.87
60055;BME280;45930;53.514;55.904;2023-04-25T00:15:18;49139.91;;;-149.77;49.79
60055;BME280;45930;53.514;55.904;2023-04-25T00:16:19;49151.78;;;-149.77;49.70
60055;BME280;45930;53.514;55.904;2023-04-25T00:17:20;49159.69;;;-149.77;49.48
60055;BME280;45930;53.514;55.904;2023-04-25T00:18:22;49157.72;;;-149.77;49.17
60055;BME280;45930;53.514;55.904;2023-04-25T00:19:23;49145.84;;;-149.77;48.91
60055;BME280;45930;53.514;55.904;2023-04-25T00:20:23;49137.91;;;-149.77;48.85
60055;BME280;45930;53.514;55.904;2023-04-25T00:21:25;49155.75;;;-149.77;48.67
60055;BME280;45930;53.514;55.904;2023-04-25T00:22:26;49131.97;;;-149.77;48.83
60055;BME280;45930;53.514;55.904;2023-04-25T00:23:26;49155.75;;;-149.77;48.71
60055;BME280;45930;53.514;55.904;2023-04-25T00:24:28;49143.84;;;-149.77;48.19
60055;BME280;45930;53.514;55.904;2023-04-25T00:25:29;49165.63;;;-149.77;48.04
60055;BME280;45930;53.514;55.904;2023-04-25T00:26:30;49139.91;;;-149.77;48.18
60055;BME280;45930;53.514;55.904;2023-04-25T00:27:30;49143.84;;;-149.77;48.26
60055;BME280;45930;53.514;55.904;2023-04-25T00:28:31;49128.00;;;-149.77;48.07
60055;BME280;45930;53.514;55.904;2023-04-25T00:29:32;49147.81;;;-149.77;47.93
60055;BME280;45930;53.514;55.904;2023-04-25T00:30:33;49139.91;;;-149.77;47.46
60055;BME280;45930;53.514;55.904;2023-04-25T00:31:34;49137.91;;;-149.77;47.33
60055;BME280;45930;53.514;55.904;2023-04-25T00:32:35;49153.75;;;-149.77;47.36
60055;BME280;45930;53.514;55.904;2023-04-25T00:33:36;49143.84;;;-149.77;47.45
60055;BME280;45930;53.514;55.904;2023-04-25T00:34:37;49143.84;;;-149.77;47.50
60055;BME280;45930;53.514;55.904;2023-04-25T00:35:37;49149.78;;;-149.77;47.70
60055;BME280;45930;53.514;55.904;2023-04-25T00:36:38;49131.97;;;-149.77;48.15
60055;BME280;45930;53.514;55.904;2023-04-25T00:37:39;49173.56;;;-149.77;48.35
60055;BME280;45930;53.514;55.904;2023-04-25T00:38:40;49126.03;;;-149.77;48.34
60055;BME280;45930;53.514;55.904;2023-04-25T00:39:41;49151.78;;;-149.77;48.89
60055;BME280;45930;53.514;55.904;2023-04-25T00:40:42;49151.78;;;-149.77;49.41
60055;BME280;45930;53.514;55.904;2023-04-25T00:41:44;49157.72;;;-149.77;49.36
60055;BME280;45930;53.514;55.904;2023-04-25T00:42:46;49135.94;;;-149.77;49.10
60055;BME280;45930;53.514;55.904;2023-04-25T00:43:48;49145.84;;;-149.77;49.40
60055;BME280;45930;53.514;55.904;2023-04-25T00:44:49;49147.81;;;-149.77;49.46
60055;BME280;45930;53.514;55.904;2023-04-25T00:45:50;49169.59;;;-149.77;49.47
60055;BME280;45930;53.514;55.904;2023-04-25T00:46:53;49153.75;;;-149.77;49.85
60055;BME280;45930;53.514;55.904;2023-04-25T00:47:55;49155.75;;;-149.77;49.79
60055;BME280;45930;53.514;55.904;2023-04-25T00:48:56;49161.69;;;-149.77;49.72
60055;BME280;45930;53.514;55.904;2023-04-25T00:49:57;49131.97;;;-149.77;50.42
60055;BME280;45930;53.514;55.904;2023-04-25T00:50:58;49124.03;;;-149.77;50.93
60055;BME280;45930;53.514;55.904;2023-04-25T00:51:59;49112.16;;;-149.77;50.70
60055;BME280;45930;53.514;55.904;2023-04-25T00:53:00;49157.72;;;-149.77;50.86
60055;BME280;45930;53.514;55.904;2023-04-25T00:54:02;49151.78;;;-149.77;51.06
60055;BME280;45930;53.514;55.904;2023-04-25T00:55:03;49139.91;;;-149.77;50.80
60055;BME280;45930;53.514;55.904;2023-04-25T00:56:04;49135.94;;;-149.77;50.62
60055;BME280;45930;53.514;55.904;2023-04-25T00:57:05;49141.88;;;-149.77;50.77
60055;BME280;45930;53.514;55.904;2023-04-25T00:58:06;49124.03;;;-149.77;51.82
60055;BME280;45930;53.514;55.904;2023-04-25T00:59:06;49124.03;;;-149.77;52.16
60055;BME280;45930;53.514;55.904;2023-04-25T01:00:09;49155.75;;;-149.77;51.87
60055;BME280;45930;53.514;55.904;2023-04-25T01:01:11;49171.59;;;-149.77;51.63
60055;BME280;45930;53.514;55.904;2023-04-25T01:02:13;49108.19;;;-149.77;52.45
60055;BME280;45930;53.514;55.904;2023-04-25T01:03:15;49137.91;;;-149.77;52.15
60055;BME280;45930;53.514;55.904;2023-04-25T01:04:17;49143.84;;;-149.77;52.65
60055;BME280;45930;53.514;55.904;2023-04-25T01:05:18;49139.91;;;-149.77;52.75
60055;BME280;45930;53.514;55.904;2023-04-25T01:06:19;49141.88;;;-149.77;52.92
60055;BME280;45930;53.514;55.904;2023-04-25T01:07:20;49137.91;;;-149.77;53.26
60055;BME280;45930;53.514;55.904;2023-04-25T01:08:23;49102.25;;;-149.77;53.74
60055;BME280;45930;53.514;55.904;2023-04-25T01:09:25;49167.63;;;-149.77;53.36
60055;BME280;45930;53.514;55.904;2023-04-25T01:10:26;49120.09;;;-149.77;52.73
60055;BME280;45930;53.514;55.904;2023-04-25T01:11:27;49126.03;;;-149.77;52.33
60055;BME280;45930;53.514;55.904;2023-04-25T01:12:28;49120.09;;;-149.77;52.10
60055;BME280;45930;53.514;55.904;2023-04-25T01:13:29;49131.97;;;-149.77;52.53
60055;BME280;45930;53.514;55.904;2023-04-25T01:14:30;49147.81;;;-149.77;52.68
60055;BME280;45930;53.514;55.904;2023-04-25T01:15:31;49108.19;;;-149.77;52.98
60055;BME280;45930;53.514;55.904;2023-04-25T01:16:32;49128.00;;;-149.77;52.53
60055;BME280;45930;53.514;55.904;2023-04-25T01:17:34;49135.94;;;-149.77;52.03
60055;BME280;45930;53.514;55.904;2023-04-25T01:18:38;49153.75;;;-149.77;51.65
60055;BME280;45930;53.514;55.904;2023-04-25T01:19:39;49131.97;;;-149.77;51.50
60055;BME280;45930;53.514;55.904;2023-04-25T01:20:41;49135.94;;;-149.77;51.95
60055;BME280;45930;53.514;55.904;2023-04-25T01:21:42;49128.00;;;-149.77;52.59
60055;BME280;45930;53.514;55.904;2023-04-25T01:22:43;49135.94;;;-149.77;53.00
60055;BME280;45930;53.514;55.904;2023-04-25T01:23:44;49124.03;;;-149.77;53.12
60055;BME280;45930;53.514;55.904;2023-04-25T01:24:46;49114.16;;;-149.77;53.25
60055;BME280;45930;53.514;55.904;2023-04-25T01:25:48;49116.13;;;-149.77;53.79
60055;BME280;45930;53.514;55.904;2023-04-25T01:26:49;49100.28;;;-149.77;54.64
60055;BME280;45930;53.514;55.904;2023-04-25T01:27:51;49122.06;;;-149.77;55.19
60055;BME280;45930;53.514;55.904;2023-04-25T01:28:52;49131.97;;;-149.77;55.70
60055;BME280;45930;53.514;55.904;2023-04-25T01:29:54;49118.09;;;-149.77;56.32
60055;BME280;45930;53.514;55.904;2023-04-25T01:30:56;49116.13;;;-149.77;57.13
60055;BME280;45930;53.514;55.904;2023-04-25T01:31:58;49116.13;;;-149.77;58.13
60055;BME280;45930;53.514;55.904;2023-04-25T01:33:00;49102.25;;;-149.77;58.72
60055;BME280;45930;53.514;55.904;2023-04-25T01:34:01;49088.41;;;-149.77;58.58
60055;BME280;45930;53.514;55.904;2023-04-25T01:35:02;49133.94;;;-149.77;58.56
60055;BME280;45930;53.514;55.904;2023-04-25T01:36:04;49122.06;;;-149.77;58.89
60055;BME280;45930;53.514;55.904;2023-04-25T01:37:05;49104.25;;;-149.77;58.58
60055;BME280;45930;53.514;55.904;2023-04-25T01:38:06;49100.28;;;-149.77;58.23
60055;BME280;45930;53.514;55.904;2023-04-25T01:39:07;49104.25;;;-149.77;58.24
60055;BME280;45930;53.514;55.904;2023-04-25T01:40:11;49100.28;;;-149.77;57.77
60055;BME280;45930;53.514;55.904;2023-04-25T01:41:13;49110.19;;;-149.77;57.64
60055;BME280;45930;53.514;55.904;2023-04-25T01:42:15;49092.34;;;-149.77;57.46
60055;BME280;45930;53.514;55.904;2023-04-25T01:43:16;49092.34;;;-149.77;57.05
60055;BME280;45930;53.514;55.904;2023-04-25T01:44:17;49102.25;;;-149.77;56.78
60055;BME280;45930;53.514;55.904;2023-04-25T01:45:18;49110.19;;;-149.77;56.54
60055;BME280;45930;53.514;55.904;2023-04-25T01:46:19;49114.16;;;-149.77;56.73
60055;BME280;45930;53.514;55.904;2023-04-25T01:47:20;49128.00;;;-149.77;56.96
60055;BME280;45930;53.514;55.904;2023-04-25T01:48:21;49116.13;;;-149.77;57.61
60055;BME280;45930;53.514;55.904;2023-04-25T01:49:21;49110.19;;;-149.77;57.77
60055;BME280;45930;53.514;55.904;2023-04-25T01:50:22;49128.00;;;-149.77;57.88
60055;BME280;45930;53.514;55.904;2023-04-25T01:51:23;49084.44;;;-149.77;57.58
60055;BME280;45930;53.514;55.904;2023-04-25T01:52:24;49108.19;;;-149.77;57.04
60055;BME280;45930;53.514;55.904;2023-04-25T01:53:25;49130.00;;;-149.77;56.65
60055;BME280;45930;53.514;55.904;2023-04-25T01:54:26;49102.25;;;-149.77;56.65
60055;BME280;45930;53.514;55.904;2023-04-25T01:55:30;49112.16;;;-149.77;56.72
60055;BME280;45930;53.514;55.904;2023-04-25T01:56:32;49131.97;;;-149.77;56.18
60055;BME280;45930;53.514;55.904;2023-04-25T01:57:33;49114.16;;;-149.77;55.95
60055;BME280;45930;53.514;55.904;2023-04-25T01:58:34;49096.31;;;-149.77;55.40
60055;BME280;45930;53.514;55.904;2023-04-25T01:59:35;49108.19;;;-149.77;55.28
60055;BME280;45930;53.514;55.904;2023-04-25T02:00:36;49072.53;;;-149.77;55.09
60055;BME280;45930;53.514;55.904;2023-04-25T02:01:39;49108.19;;;-149.77;55.06
60055;BME280;45930;53.514;55.904;2023-04-25T02:02:40;49106.22;;;-149.77;55.13
60055;BME280;45930;53.514;55.904;2023-04-25T02:03:41;49102.25;;;-149.77;54.82
60055;BME280;45930;53.514;55.904;2023-04-25T02:04:41;49114.16;;;-149.77;54.69
60055;BME280;45930;53.514;55.904;2023-04-25T02:05:42;49110.19;;;-149.77;54.72
60055;BME280;45930;53.514;55.904;2023-04-25T02:06:43;49118.09;;;-149.77;54.69
60055;BME280;45930;53.514;55.904;2023-04-25T02:07:44;49056.69;;;-149.77;54.78
60055;BME280;45930;53.514;55.904;2023-04-25T02:08:45;49076.50;;;-149.77;54.78
60055;BME280;45930;53.514;55.904;2023-04-25T02:09:45;49104.25;;;-149.77;55.16
60055;BME280;45930;53.514;55.904;2023-04-25T02:10:46;49100.28;;;-149.77;55.13
60055;BME280;45930;53.514;55.904;2023-04-25T02:11:47;49086.41;;;-149.77;55.25
60055;BME280;45930;53.514;55.904;2023-04-25T02:12:48;49088.41;;;-149.77;55.55
60055;BME280;45930;53.514;55.904;2023-04-25T02:13:49;49092.34;;;-149.77;55.98
60055;BME280;45930;53.514;55.904;2023-04-25T02:14:50;49106.22;;;-149.77;56.22
60055;BME280;45930;53.514;55.904;2023-04-25T02:15:50;49098.28;;;-149.77;56.04
60055;BME280;45930;53.514;55.904;2023-04-25T02:16:51;49104.25;;;-149.77;55.76
60055;BME280;45930;53.514;55.904;2023-04-25T02:17:52;49108.19;;;-149.77;55.21
60055;BME280;45930;53.514;55.904;2023-04-25T02:18:54;49080.47;;;-149.77;54.68
60055;BME280;45930;53.514;55.904;2023-04-25T02:19:54;49072.53;;;-149.77;54.56
60055;BME280;45930;53.514;55.904;2023-04-25T02:20:55;49088.41;;;-149.77;54.55
60055;BME280;45930;53.514;55.904;2023-04-25T02:21:56;49086.41;;;-149.77;54.41
60055;BME280;45930;53.514;55.904;2023-04-25T02:22:58;49092.34;;;-149.77;54.29
60055;BME280;45930;53.514;55.904;2023-04-25T02:23:59;49098.28;;;-149.77;53.97
60055;BME280;45930;53.514;55.904;2023-04-25T02:25:00;49080.47;;;-149.77;53.70
60055;BME280;45930;53.514;55.904;2023-04-25T02:26:01;49112.16;;;-149.77;53.10
60055;BME280;45930;53.514;55.904;2023-04-25T02:27:02;49100.28;;;-149.77;52.82
60055;BME280;45930;53.514;55.904;2023-04-25T02:28:03;49092.34;;;-149.77;52.05
60055;BME280;45930;53.514;55.904;2023-04-25T02:29:04;49086.41;;;-149.77;51.66
60055;BME280;45930;53.514;55.904;2023-04-25T02:30:05;49084.44;;;-149.77;51.25
60055;BME280;45930;53.514;55.904;2023-04-25T02:31:07;49112.16;;;-149.77;51.21
60055;BME280;45930;53.514;55.904;2023-04-25T02:32:07;49068.59;;;-149.77;50.69
60055;BME280;45930;53.514;55.904;2023-04-25T02:33:08;49110.19;;;-149.77;49.93
60055;BME280;45930;53.514;55.904;2023-04-25T02:34:09;49080.47;;;-149.77;49.43
60055;BME280;45930;53.514;55.904;2023-04-25T02:35:10;49108.19;;;-149.77;49.49
60055;BME280;45930;53.514;55.904;2023-04-25T02:36:11;49096.31;;;-149.77;49.98
60055;BME280;45930;53.514;55.904;2023-04-25T02:37:12;49090.38;;;-149.77;50.43
60055;BME280;45930;53.514;55.904;2023-04-25T02:38:13;49108.19;;;-149.77;50.53
60055;BME280;45930;53.514;55.904;2023-04-25T02:39:13;49088.41;;;-149.77;50.68
60055;BME280;45930;53.514;55.904;2023-04-25T02:40:14;49122.06;;;-149.77;51.37
60055;BME280;45930;53.514;55.904;2023-04-25T02:41:15;49098.28;;;-149.77;51.97
60055;BME280;45930;53.514;55.904;2023-04-25T02:42:16;49074.53;;;-149.77;52.60
60055;BME280;45930;53.514;55.904;2023-04-25T02:43:17;49076.50;;;-149.77;52.97
60055;BME280;45930;53.514;55.904;2023-04-25T02:44:17;49080.47;;;-149.77;53.07
60055;BME280;45930;53.514;55.904;2023-04-25T02:45:18;49092.34;;;-149.77;53.12
60055;BME280;45930;53.514;55.904;2023-04-25T02:46:19;49066.59;;;-149.77;53.11
60055;BME280;45930;53.514;55.904;2023-04-25T02:47:20;49076.50;;;-149.77;53.11
60055;BME280;45930;53.514;55.904;2023-04-25T02:48:21;49098.28;;;-149.77;52.70
60055;BME280;45930;53.514;55.904;2023-04-25T02:49:21;49072.53;;;-149.77;52.40
60055;BME280;45930;53.514;55.904;2023-04-25T02:50:22;49074.53;;;-149.77;52.13
60055;BME280;45930;53.514;55.904;2023-04-25T02:51:23;49048.78;;;-149.77;52.11
60055;BME280;45930;53.514;55.904;2023-04-25T02:52:24;49064.63;;;-149.77;52.00
60055;BME280;45930;53.514;55.904;2023-04-25T02:53:25;49076.50;;;-149.77;51.85
60055;BME280;45930;53.514;55.904;2023-04-25T02:54:26;49080.47;;;-149.77;51.73
60055;BME280;45930;53.514;55.904;2023-04-25T02:55:27;49074.53;;;-149.77;51.50
60055;BME280;45930;53.514;55.904;2023-04-25T02:56:28;49052.75;;;-149.77;51.17
60055;BME280;45930;53.514;55.904;2023-04-25T02:57:28;49066.59;;;-149.77;50.91
60055;BME280;45930;53.514;55.904;2023-04-25T02:58:29;49090.38;;;-149.77;50.63
60055;BME280;45930;53.514;55.904;2023-04-25T02:59:30;49074.53;;;-149.77;50.39
60055;BME280;45930;53.514;55.904;2023-04-25T03:00:31;49072.53;;;-149.77;50.31
60055;BME280;45930;53.514;55.904;2023-04-25T03:01:32;49076.50;;;-149.77;49.55
60055;BME280;45930;53.514;55.904;2023-04-25T03:02:32;49076.50;;;-149.77;48.45
60055;BME280;45930;53.514;55.904;2023-04-25T03:03:33;49074.53;;;-149.77;47.86
60055;BME280;45930;53.514;55.904;2023-04-25T03:04:34;49080.47;;;-149.77;47.44
60055;BME280;45930;53.514;55.904;2023-04-25T03:05:35;49100.28;;;-149.77;46.93
60055;BME280;45930;53.514;55.904;2023-04-25T03:06:35;49108.19;;;-149.77;46.66
60055;BME280;45930;53.514;55.904;2023-04-25T03:07:36;49086.41;;;-149.77;46.47
60055;BME280;45930;53.514;55.904;2023-04-25T03:08:37;49084.44;;;-149.77;45.88
60055;BME280;45930;53.514;55.904;2023-04-25T03:09:38;49092.34;;;-149.77;45.58
60055;BME280;45930;53.514;55.904;2023-04-25T03:10:40;49064.63;;;-149.77;45.54
60055;BME280;45930;53.514;55.904;2023-04-25T03:11:40;49102.25;;;-149.77;45.24
60055;BME280;45930;53.514;55.904;2023-04-25T03:12:41;49090.38;;;-149.77;45.01
60055;BME280;45930;53.514;55.904;2023-04-25T03:13:42;49098.28;;;-149.77;44.87
60055;BME280;45930;53.514;55.904;2023-04-25T03:14:43;49078.50;;;-149.77;44.57
60055;BME280;45930;53.514;55.904;2023-04-25T03:15:44;49076.50;;;-149.77;44.21
60055;BME280;45930;53.514;55.904;2023-04-25T03:16:45;49094.34;;;-149.77;44.11
60055;BME280;45930;53.514;55.904;2023-04-25T03:17:46;49118.09;;;-149.77;43.91
60055;BME280;45930;53.514;55.904;2023-04-25T03:18:46;49086.41;;;-149.77;43.94
60055;BME280;45930;53.514;55.904;2023-04-25T03:19:47;49086.41;;;-149.77;43.92
60055;BME280;45930;53.514;55.904;2023-04-25T03:20:48;49072.53;;;-149.77;43.48
60055;BME280;45930;53.514;55.904;2023-04-25T03:21:49;49092.34;;;-149.77;43.42
60055;BME280;45930;53.514;55.904;2023-04-25T03:22:50;49086.41;;;-149.77;43.43
60055;BME280;45930;53.514;55.904;2023-04-25T03:23:51;49080.47;;;-149.77;43.34
60055;BME280;45930;53.514;55.904;2023-04-25T03:24:51;49122.06;;;-149.77;43.16
60055;BME280;45930;53.514;55.904;2023-04-25T03:25:52;49080.47;;;-149.77;43.13
60055;BME280;45930;53.514;55.904;2023-04-25T03:26:53;49082.44;;;-149.77;42.78
60055;BME280;45930;53.514;55.904;2023-04-25T03:27:54;49098.28;;;-149.77;42.70
60055;BME280;45930;53.514;55.904;2023-04-25T03:28:56;49116.13;;;-149.77;42.61
60055;BME280;45930;53.514;55.904;2023-04-25T03:29:56;49094.34;;;-149.77;42.30
60055;BME280;45930;53.514;55.904;2023-04-25T03:30:57;49076.50;;;-149.77;42.14
60055;BME280;45930;53.514;55.904;2023-04-25T03:31:58;49098.28;;;-149.77;42.08
60055;BME280;45930;53.514;55.904;2023-04-25T03:32:59;49098.28;;;-149.77;41.97
60055;BME280;45930;53.514;55.904;2023-04-25T03:33:59;49094.34;;;-149.77;42.01
60055;BME280;45930;53.514;55.904;2023-04-25T03:35:00;49074.53;;;-149.77;41.93
60055;BME280;45930;53.514;55.904;2023-04-25T03:36:01;49082.44;;;-149.77;41.88
60055;BME280;45930;53.514;55.904;2023-04-25T03:37:02;49080.47;;;-149.77;41.77
60055;BME280;45930;53.514;55.904;2023-04-25T03:38:03;49080.47;;;-149.77;41.45
60055;BME280;45930;53.514;55.904;2023-04-25T03:39:04;49098.28;;;-149.77;41.41
60055;BME280;45930;53.514;55.904;2023-04-25T03:40:05;49074.53;;;-149.77;41.22
60055;BME280;45930;53.514;55.904;2023-04-25T03:41:06;49078.50;;;-149.77;41.34
60055;BME280;45930;53.514;55.904;2023-04-25T03:42:07;49102.25;;;-149.77;40.94
60055;BME280;45930;53.514;55.904;2023-04-25T03:43:08;49120.09;;;-149.77;40.72
60055;BME280;45930;53.514;55.904;2023-04-25T03:44:09;49070.56;;;-149.77;40.64
60055;BME280;45930;53.514;55.904;2023-04-25T03:45:10;49102.25;;;-149.77;40.59
60055;BME280;45930;53.514;55.904;2023-04-25T03:46:11;49088.41;;;-149.77;40.36
60055;BME280;45930;53.514;55.904;2023-04-25T03:47:12;49096.31;;;-149.77;40.47
60055;BME280;45930;53.514;55.904;2023-04-25T03:48:13;49100.28;;;-149.77;40.69
60055;BME280;45930;53.514;55.904;2023-04-25T03:49:13;49058.69;;;-149.77;40.59
60055;BME280;45930;53.514;55.904;2023-04-25T03:50:14;49084.44;;;-149.77;40.26
60055;BME280;45930;53.514;55.904;2023-04-25T03:51:15;49076.50;;;-149.77;40.06
60055;BME280;45930;53.514;55.904;2023-04-25T03:52:16;49064.63;;;-149.77;40.13
60055;BME280;45930;53.514;55.904;2023-04-25T03:53:19;49092.34;;;-149.77;40.22
60055;BME280;45930;53.514;55.904;2023-04-25T03:54:20;49092.34;;;-149.77;40.11
60055;BME280;45930;53.514;55.904;2023-04-25T03:55:21;49074.53;;;-149.77;39.91
60055;BME280;45930;53.514;55.904;2023-04-25T03:56:22;49106.22;;;-149.77;39.80
60055;BME280;45930;53.514;55.904;2023-04-25T03:57:23;49088.41;;;-149.77;39.46
60055;BME280;45930;53.514;55.904;2023-04-25T03:58:24;49084.44;;;-149.77;39.39
60055;BME280;45930;53.514;55.904;2023-04-25T03:59:24;49072.53;;;-149.77;39.48
60055;BME280;45930;53.514;55.904;2023-04-25T04:00:26;49072.53;;;-149.77;39.36
60055;BME280;45930;53.514;55.904;2023-04-25T04:01:27;49112.16;;;-149.77;39.22
60055;BME280;45930;53.514;55.904;2023-04-25T04:02:28;49070.56;;;-149.77;38.86
60055;BME280;45930;53.514;55.904;2023-04-25T04:03:28;49114.16;;;-149.77;38.64
60055;BME280;45930;53.514;55.904;2023-04-25T04:04:29;49082.44;;;-149.77;38.55
60055;BME280;45930;53.514;55.904;2023-04-25T04:05:30;49092.34;;;-149.77;38.26
60055;BME280;45930;53.514;55.904;2023-04-25T04:06:31;49086.41;;;-149.77;38.29
60055;BME280;45930;53.514;55.904;2023-04-25T04:07:32;49082.44;;;-149.77;38.08
60055;BME280;45930;53.514;55.904;2023-04-25T04:08:34;49090.38;;;-149.77;38.03
60055;BME280;45930;53.514;55.904;2023-04-25T04:09:35;49082.44;;;-149.77;37.92
60055;BME280;45930;53.514;55.904;2023-04-25T04:10:36;49094.34;;;-149.77;38.24
60055;BME280;45930;53.514;55.904;2023-04-25T04:11:38;49062.66;;;-149.77;37.83
60055;BME280;45930;53.514;55.904;2023-04-25T04:12:38;49112.16;;;-149.77;37.73
60055;BME280;45930;53.514;55.904;2023-04-25T04:13:39;49100.28;;;-149.77;37.71
60055;BME280;45930;53.514;55.904;2023-04-25T04:14:40;49112.16;;;-149.77;37.60
60055;BME280;45930;53.514;55.904;2023-04-25T04:15:41;49074.53;;;-149.77;37.75
60055;BME280;45930;53.514;55.904;2023-04-25T04:16:42;49076.50;;;-149.77;37.63
60055;BME280;45930;53.514;55.904;2023-04-25T04:17:43;49088.41;;;-149.77;37.23
60055;BME280;45930;53.514;55.904;2023-04-25T04:18:45;49124.03;;;-149.77;37.23
60055;BME280;45930;53.514;55.904;2023-04-25T04:19:46;49066.59;;;-149.77;37.05
60055;BME280;45930;53.514;55.904;2023-04-25T04:20:47;49082.44;;;-149.77;37.28
60055;BME280;45930;53.514;55.904;2023-04-25T04:21:48;49068.59;;;-149.77;37.14
60055;BME280;45930;53.514;55.904;2023-04-25T04:22:48;49088.41;;;-149.77;37.28
60055;BME280;45930;53.514;55.904;2023-04-25T04:23:49;49084.44;;;-149.77;36.87
60055;BME280;45930;53.514;55.904;2023-04-25T04:24:50;49078.50;;;-149.77;36.55
60055;BME280;45930;53.514;55.904;2023-04-25T04:25:51;49090.38;;;-149.77;36.73
60055;BME280;45930;53.514;55.904;2023-04-25T04:26:52;49064.63;;;-149.77;36.85
60055;BME280;45930;53.514;55.904;2023-04-25T04:27:53;49110.19;;;-149.77;36.76
60055;BME280;45930;53.514;55.904;2023-04-25T04:28:55;49080.47;;;-149.77;36.64
60055;BME280;45930;53.514;55.904;2023-04-25T04:29:56;49104.25;;;-149.77;36.37
60055;BME280;45930;53.514;55.904;2023-04-25T04:31:00;49088.41;;;-149.77;36.50
60055;BME280;45930;53.514;55.904;2023-04-25T04:32:03;49116.13;;;-149.77;36.06
60055;BME280;45930;53.514;55.904;2023-04-25T04:33:03;49102.25;;;-149.77;35.49
60055;BME280;45930;53.514;55.904;2023-04-25T04:34:07;49130.00;;;-149.77;35.33
60055;BME280;45930;53.514;55.904;2023-04-25T04:35:09;49112.16;;;-149.77;35.26
60055;BME280;45930;53.514;55.904;2023-04-25T04:36:11;49112.16;;;-149.77;35.08
60055;BME280;45930;53.514;55.904;2023-04-25T04:37:12;49096.31;;;-149.77;34.74
60055;BME280;45930;53.514;55.904;2023-04-25T04:38:13;49137.91;;;-149.77;34.72
60055;BME280;45930;53.514;55.904;2023-04-25T04:39:15;49143.84;;;-149.77;34.71
60055;BME280;45930;53.514;55.904;2023-04-25T04:40:17;49139.91;;;-149.77;34.52
60055;BME280;45930;53.514;55.904;2023-04-25T04:41:18;49133.94;;;-149.77;34.48
60055;BME280;45930;53.514;55.904;2023-04-25T04:42:20;49110.19;;;-149.77;34.49
60055;BME280;45930;53.514;55.904;2023-04-25T04:43:21;49124.03;;;-149.77;34.32
60055;BME280;45930;53.514;55.904;2023-04-25T04:44:24;49112.16;;;-149.77;34.50
60055;BME280;45930;53.514;55.904;2023-04-25T04:45:25;49137.91;;;-149.77;34.22
60055;BME280;45930;53.514;55.904;2023-04-25T04:46:28;49147.81;;;-149.77;34.40
60055;BME280;45930;53.514;55.904;2023-04-25T04:47:29;49135.94;;;-149.77;34.05
60055;BME280;45930;53.514;55.904;2023-04-25T04:48:31;49090.38;;;-149.77;33.97
60055;BME280;45930;53.514;55.904;2023-04-25T04:49:35;49116.13;;;-149.77;34.21
60055;BME280;45930;53.514;55.904;2023-04-25T04:50:36;49131.97;;;-149.77;34.12
60055;BME280;45930;53.514;55.904;2023-04-25T04:51:38;49131.97;;;-149.77;34.09
60055;BME280;45930;53.514;55.904;2023-04-25T04:52:39;49141.88;;;-149.77;34.02
60055;BME280;45930;53.514;55.904;2023-04-25T04:53:39;49133.94;;;-149.77;33.70
60055;BME280;45930;53.514;55.904;2023-04-25T04:54:40;49135.94;;;-149.77;33.41
60055;BME280;45930;53.514;55.904;2023-04-25T04:55:41;49143.84;;;-149.77;33.38
60055;BME280;45930;53.514;55.904;2023-04-25T04:56:42;49124.03;;;-149.77;33.13
60055;BME280;45930;53.514;55.904;2023-04-25T04:57:42;49141.88;;;-149.77;33.22
60055;BME280;45930;53.514;55.904;2023-04-25T04:58:43;49149.78;;;-149.77;33.28
60055;BME280;45930;53.514;55.904;2023-04-25T04:59:45;49126.03;;;-149.77;32.87
60055;BME280;45930;53.514;55.904;2023-04-25T05:00:46;49153.75;;;-149.77;32.77
60055;BME280;45930;53.514;55.904;2023-04-25T05:01:47;49147.81;;;-149.77;32.67
60055;BME280;45930;53.514;55.904;2023-04-25T05:02:48;49187.44;;;-149.77;32.32
60055;BME280;45930;53.514;55.904;2023-04-25T05:03:49;49155.75;;;-149.77;32.40
60055;BME280;45930;53.514;55.904;2023-04-25T05:04:50;49147.81;;;-149.77;32.21
60055;BME280;45930;53.514;55.904;2023-04-25T05:05:52;49159.69;;;-149.77;32.25
60055;BME280;45930;53.514;55.904;2023-04-25T05:06:52;49167.63;;;-149.77;32.20
60055;BME280;45930;53.514;55.904;2023-04-25T05:07:53;49147.81;;;-149.77;31.82
60055;BME280;45930;53.514;55.904;2023-04-25T05:08:55;49157.72;;;-149.77;31.99
60055;BME280;45930;53.514;55.904;2023-04-25T05:09:55;49191.38;;;-149.77;31.86
60055;BME280;45930;53.514;55.904;2023-04-25T05:10:56;49171.59;;;-149.77;31.47